sensor_id;sensor_type;location;lat;lon;timestamp;pressure;altitude;pressure_sealevel;temperature
80962;BMP280;70424;55.154;14.722;2023-12-14T00:00:07;101010.50;;;3.26
80962;BMP280;70424;55.154;14.722;2023-12-14T00:02:33;101009.97;;;3.28
80962;BMP280;70424;55.154;14.722;2023-12-14T00:04:59;101026.81;;;3.34
80962;BMP280;70424;55.154;14.722;2023-12-14T00:07:24;101030.94;;;3.35
80962;BMP280;70424;55.154;14.722;2023-12-14T00:09:49;101037.59;;;3.34
80962;BMP280;70424;55.154;14.722;2023-12-14T00:12:15;101027.31;;;3.32
80962;BMP280;70424;55.154;14.722;2023-12-14T00:14:40;101035.44;;;3.32
80962;BMP280;70424;55.154;14.722;2023-12-14T00:17:06;101022.34;;;3.23
80962;BMP280;70424;55.154;14.722;2023-12-14T00:19:31;101050.78;;;3.38
80962;BMP280;70424;55.154;14.722;2023-12-14T00:21:56;101047.69;;;3.33
80962;BMP280;70424;55.154;14.722;2023-12-14T00:24:22;101041.66;;;3.27
80962;BMP280;70424;55.154;14.722;2023-12-14T00:26:47;101060.47;;;3.33
80962;BMP280;70424;55.154;14.722;2023-12-14T00:29:12;101059.75;;;3.32
80962;BMP280;70424;55.154;14.722;2023-12-14T00:31:38;101074.72;;;3.33
80962;BMP280;70424;55.154;14.722;2023-12-14T00:34:03;101070.66;;;3.27
80962;BMP280;70424;55.154;14.722;2023-12-14T00:36:29;101073.03;;;3.30
80962;BMP280;70424;55.154;14.722;2023-12-14T00:38:54;101057.81;;;3.20
80962;BMP280;70424;55.154;14.722;2023-12-14T00:41:20;101082.19;;;3.27
80962;BMP280;70424;55.154;14.722;2023-12-14T00:43:46;101057.47;;;3.10
80962;BMP280;70424;55.154;14.722;2023-12-14T00:46:12;101069.84;;;3.19
80962;BMP280;70424;55.154;14.722;2023-12-14T00:48:37;101093.00;;;3.27
80962;BMP280;70424;55.154;14.722;2023-12-14T00:51:03;101094.25;;;3.26
80962;BMP280;70424;55.154;14.722;2023-12-14T00:53:28;101080.44;;;3.17
80962;BMP280;70424;55.154;14.722;2023-12-14T00:55:53;101092.59;;;3.23
80962;BMP280;70424;55.154;14.722;2023-12-14T00:58:19;101069.72;;;3.11
80962;BMP280;70424;55.154;14.722;2023-12-14T01:00:44;101095.09;;;3.21
80962;BMP280;70424;55.154;14.722;2023-12-14T01:03:09;101109.59;;;3.31
80962;BMP280;70424;55.154;14.722;2023-12-14T01:05:35;101101.94;;;3.22
80962;BMP280;70424;55.154;14.722;2023-12-14T01:08:00;101094.56;;;3.10
80962;BMP280;70424;55.154;14.722;2023-12-14T01:10:26;101092.28;;;3.14
80962;BMP280;70424;55.154;14.722;2023-12-14T01:12:51;101094.25;;;3.13
80962;BMP280;70424;55.154;14.722;2023-12-14T01:15:16;101091.44;;;3.05
80962;BMP280;70424;55.154;14.722;2023-12-14T01:17:42;101077.75;;;2.90
80962;BMP280;70424;55.154;14.722;2023-12-14T01:20:07;101111.06;;;3.19
80962;BMP280;70424;55.154;14.722;2023-12-14T01:22:33;101112.31;;;3.18
80962;BMP280;70424;55.154;14.722;2023-12-14T01:24:59;101105.78;;;3.14
80962;BMP280;70424;55.154;14.722;2023-12-14T01:27:25;101082.41;;;3.03
80962;BMP280;70424;55.154;14.722;2023-12-14T01:29:50;101074.75;;;2.94
80962;BMP280;70424;55.154;14.722;2023-12-14T01:32:15;101094.75;;;2.98
80962;BMP280;70424;55.154;14.722;2023-12-14T01:34:41;101118.06;;;3.15
80962;BMP280;70424;55.154;14.722;2023-12-14T01:37:06;101111.28;;;3.08
80962;BMP280;70424;55.154;14.722;2023-12-14T01:39:32;101119.59;;;3.10
80962;BMP280;70424;55.154;14.722;2023-12-14T01:41:58;101128.34;;;3.16
80962;BMP280;70424;55.154;14.722;2023-12-14T01:44:23;101124.81;;;3.08
80962;BMP280;70424;55.154;14.722;2023-12-14T01:46:48;101129.38;;;3.13
80962;BMP280;70424;55.154;14.722;2023-12-14T01:49:14;101111.69;;;2.99
80962;BMP280;70424;55.154;14.722;2023-12-14T01:51:40;101135.50;;;3.14
80962;BMP280;70424;55.154;14.722;2023-12-14T01:54:05;101135.50;;;3.14
80962;BMP280;70424;55.154;14.722;2023-12-14T01:56:31;101136.94;;;3.01
80962;BMP280;70424;55.154;14.722;2023-12-14T01:58:56;101137.66;;;3.02
80962;BMP280;70424;55.154;14.722;2023-12-14T02:01:44;101146.81;;;3.12
80962;BMP280;70424;55.154;14.722;2023-12-14T02:04:10;101148.38;;;3.08
80962;BMP280;70424;55.154;14.722;2023-12-14T02:06:36;101147.84;;;3.09
80962;BMP280;70424;55.154;14.722;2023-12-14T02:09:01;101152.22;;;3.12
80962;BMP280;70424;55.154;14.722;2023-12-14T02:11:27;101151.28;;;3.10
80962;BMP280;70424;55.154;14.722;2023-12-14T02:13:52;101152.44;;;3.14
80962;BMP280;70424;55.154;14.722;2023-12-14T02:16:18;101113.88;;;2.87
80962;BMP280;70424;55.154;14.722;2023-12-14T02:18:44;101146.41;;;3.08
80962;BMP280;70424;55.154;14.722;2023-12-14T02:21:10;101137.47;;;3.00
80962;BMP280;70424;55.154;14.722;2023-12-14T02:23:35;101151.09;;;3.08
80962;BMP280;70424;55.154;14.722;2023-12-14T02:26:07;101152.53;;;3.09
80962;BMP280;70424;55.154;14.722;2023-12-14T02:28:32;101138.31;;;2.95
80962;BMP280;70424;55.154;14.722;2023-12-14T02:30:57;101149.19;;;3.02
80962;BMP280;70424;55.154;14.722;2023-12-14T02:33:23;101151.38;;;3.04
80962;BMP280;70424;55.154;14.722;2023-12-14T02:35:48;101158.66;;;3.09
80962;BMP280;70424;55.154;14.722;2023-12-14T02:38:14;101159.91;;;3.08
80962;BMP280;70424;55.154;14.722;2023-12-14T02:40:39;101151.28;;;3.10
80962;BMP280;70424;55.154;14.722;2023-12-14T02:43:04;101157.22;;;3.08
80962;BMP280;70424;55.154;14.722;2023-12-14T02:45:30;101147.22;;;3.03
80962;BMP280;70424;55.154;14.722;2023-12-14T02:47:55;101153.78;;;3.08
80962;BMP280;70424;55.154;14.722;2023-12-14T02:50:20;101153.47;;;3.11
80962;BMP280;70424;55.154;14.722;2023-12-14T02:52:46;101160.09;;;3.10
80962;BMP280;70424;55.154;14.722;2023-12-14T02:55:12;101154.19;;;3.12
80962;BMP280;70424;55.154;14.722;2023-12-14T02:57:37;101146.59;;;3.10
80962;BMP280;70424;55.154;14.722;2023-12-14T03:00:03;101131.94;;;2.92
80962;BMP280;70424;55.154;14.722;2023-12-14T03:02:28;101121.25;;;2.87
80962;BMP280;70424;55.154;14.722;2023-12-14T03:04:53;101148.88;;;3.06
80962;BMP280;70424;55.154;14.722;2023-12-14T03:07:19;101155.97;;;3.09
80962;BMP280;70424;55.154;14.722;2023-12-14T03:09:45;101146.94;;;3.07
80962;BMP280;70424;55.154;14.722;2023-12-14T03:12:10;101134.97;;;3.02
80962;BMP280;70424;55.154;14.722;2023-12-14T03:14:36;101139.13;;;3.03
80962;BMP280;70424;55.154;14.722;2023-12-14T03:17:01;101155.63;;;3.13
80962;BMP280;70424;55.154;14.722;2023-12-14T03:19:28;101147.84;;;3.09
80962;BMP280;70424;55.154;14.722;2023-12-14T03:21:53;101144.09;;;3.12
80962;BMP280;70424;55.154;14.722;2023-12-14T03:24:19;101132.06;;;3.00
80962;BMP280;70424;55.154;14.722;2023-12-14T03:26:44;101135.09;;;3.10
80962;BMP280;70424;55.154;14.722;2023-12-14T03:29:10;101135.25;;;2.98
80962;BMP280;70424;55.154;14.722;2023-12-14T03:31:35;101127.16;;;2.98
80962;BMP280;70424;55.154;14.722;2023-12-14T03:34:01;101144.63;;;3.11
80962;BMP280;70424;55.154;14.722;2023-12-14T03:36:26;101159.59;;;3.12
80962;BMP280;70424;55.154;14.722;2023-12-14T03:38:52;101141.63;;;3.01
80962;BMP280;70424;55.154;14.722;2023-12-14T03:41:18;101150.75;;;3.11
80962;BMP280;70424;55.154;14.722;2023-12-14T03:43:43;101151.81;;;3.08
80962;BMP280;70424;55.154;14.722;2023-12-14T03:46:09;101108.34;;;2.80
80962;BMP280;70424;55.154;14.722;2023-12-14T03:48:35;101135.97;;;2.99
80962;BMP280;70424;55.154;14.722;2023-12-14T03:51:04;101154.06;;;3.04
80962;BMP280;70424;55.154;14.722;2023-12-14T03:53:30;101158.66;;;3.09
80962;BMP280;70424;55.154;14.722;2023-12-14T03:55:57;101162.19;;;3.04
80962;BMP280;70424;55.154;14.722;2023-12-14T03:58:23;101132.56;;;2.85
80962;BMP280;70424;55.154;14.722;2023-12-14T04:00:48;101162.69;;;3.02
80962;BMP280;70424;55.154;14.722;2023-12-14T04:03:13;101165.19;;;3.00
80962;BMP280;70424;55.154;14.722;2023-12-14T04:05:39;101150.84;;;2.92
80962;BMP280;70424;55.154;14.722;2023-12-14T04:08:04;101164.03;;;2.96
80962;BMP280;70424;55.154;14.722;2023-12-14T04:10:30;101171.81;;;2.86
80962;BMP280;70424;55.154;14.722;2023-12-14T04:12:55;101184.09;;;3.00
80962;BMP280;70424;55.154;14.722;2023-12-14T04:15:21;101166.94;;;2.85
80962;BMP280;70424;55.154;14.722;2023-12-14T04:17:46;101190.22;;;3.01
80962;BMP280;70424;55.154;14.722;2023-12-14T04:20:13;101199.06;;;3.01
80962;BMP280;70424;55.154;14.722;2023-12-14T04:22:38;101193.00;;;2.95
80962;BMP280;70424;55.154;14.722;2023-12-14T04:25:04;101199.34;;;2.98
80962;BMP280;70424;55.154;14.722;2023-12-14T04:27:29;101203.28;;;2.97
80962;BMP280;70424;55.154;14.722;2023-12-14T04:29:55;101205.19;;;3.02
80962;BMP280;70424;55.154;14.722;2023-12-14T04:32:20;101202.78;;;2.98
80962;BMP280;70424;55.154;14.722;2023-12-14T04:34:46;101175.34;;;2.81
80962;BMP280;70424;55.154;14.722;2023-12-14T04:37:12;101202.56;;;2.96
80962;BMP280;70424;55.154;14.722;2023-12-14T04:39:37;101204.53;;;2.96
80962;BMP280;70424;55.154;14.722;2023-12-14T04:42:03;101201.22;;;2.90
80962;BMP280;70424;55.154;14.722;2023-12-14T04:44:28;101203.00;;;2.87
80962;BMP280;70424;55.154;14.722;2023-12-14T04:46:54;101220.94;;;2.98
80962;BMP280;70424;55.154;14.722;2023-12-14T04:49:19;101215.34;;;2.96
80962;BMP280;70424;55.154;14.722;2023-12-14T04:51:45;101215.72;;;2.87
80962;BMP280;70424;55.154;14.722;2023-12-14T04:54:10;101220.84;;;2.90
80962;BMP280;70424;55.154;14.722;2023-12-14T04:56:36;101222.81;;;2.90
80962;BMP280;70424;55.154;14.722;2023-12-14T04:59:01;101216.34;;;2.80
80962;BMP280;70424;55.154;14.722;2023-12-14T05:01:27;101219.03;;;2.80
80962;BMP280;70424;55.154;14.722;2023-12-14T05:03:53;101213.28;;;2.70
80962;BMP280;70424;55.154;14.722;2023-12-14T05:06:18;101227.06;;;2.85
80962;BMP280;70424;55.154;14.722;2023-12-14T05:08:43;101229.94;;;2.74
80962;BMP280;70424;55.154;14.722;2023-12-14T05:11:09;101218.97;;;2.66
80962;BMP280;70424;55.154;14.722;2023-12-14T05:13:34;101230.66;;;2.74
80962;BMP280;70424;55.154;14.722;2023-12-14T05:16:00;101244.06;;;2.80
80962;BMP280;70424;55.154;14.722;2023-12-14T05:18:26;101242.19;;;2.75
80962;BMP280;70424;55.154;14.722;2023-12-14T05:20:52;101243.28;;;2.66
80962;BMP280;70424;55.154;14.722;2023-12-14T05:23:17;101242.88;;;2.62
80962;BMP280;70424;55.154;14.722;2023-12-14T05:25:43;101238.00;;;2.61
80962;BMP280;70424;55.154;14.722;2023-12-14T05:28:09;101220.19;;;2.52
80962;BMP280;70424;55.154;14.722;2023-12-14T05:30:34;101214.84;;;2.46
80962;BMP280;70424;55.154;14.722;2023-12-14T05:32:59;101239.00;;;2.58
80962;BMP280;70424;55.154;14.722;2023-12-14T05:35:25;101262.59;;;2.70
80962;BMP280;70424;55.154;14.722;2023-12-14T05:37:51;101233.03;;;2.46
80962;BMP280;70424;55.154;14.722;2023-12-14T05:40:16;101271.75;;;2.67
80962;BMP280;70424;55.154;14.722;2023-12-14T05:42:41;101250.31;;;2.56
80962;BMP280;70424;55.154;14.722;2023-12-14T05:45:07;101246.66;;;2.54
80962;BMP280;70424;55.154;14.722;2023-12-14T05:47:33;101273.47;;;2.65
80962;BMP280;70424;55.154;14.722;2023-12-14T05:50:00;101272.78;;;2.64
80962;BMP280;70424;55.154;14.722;2023-12-14T05:52:25;101249.44;;;2.48
80962;BMP280;70424;55.154;14.722;2023-12-14T05:54:51;101276.50;;;2.61
80962;BMP280;70424;55.154;14.722;2023-12-14T05:57:16;101248.47;;;2.45
80962;BMP280;70424;55.154;14.722;2023-12-14T05:59:41;101291.13;;;2.66
80962;BMP280;70424;55.154;14.722;2023-12-14T06:02:07;101270.66;;;2.57
80962;BMP280;70424;55.154;14.722;2023-12-14T06:04:33;101288.97;;;2.64
80962;BMP280;70424;55.154;14.722;2023-12-14T06:06:58;101293.34;;;2.67
80962;BMP280;70424;55.154;14.722;2023-12-14T06:09:24;101279.75;;;2.54
80962;BMP280;70424;55.154;14.722;2023-12-14T06:11:55;101309.22;;;2.71
80962;BMP280;70424;55.154;14.722;2023-12-14T06:14:20;101281.00;;;2.53
80962;BMP280;70424;55.154;14.722;2023-12-14T06:16:45;101302.66;;;2.66
80962;BMP280;70424;55.154;14.722;2023-12-14T06:19:11;101314.41;;;2.69
80962;BMP280;70424;55.154;14.722;2023-12-14T06:21:37;101312.72;;;2.66
80962;BMP280;70424;55.154;14.722;2023-12-14T06:24:02;101296.84;;;2.62
80962;BMP280;70424;55.154;14.722;2023-12-14T06:26:28;101298.75;;;2.48
80962;BMP280;70424;55.154;14.722;2023-12-14T06:28:53;101320.75;;;2.71
80962;BMP280;70424;55.154;14.722;2023-12-14T06:31:19;101330.81;;;2.71
80962;BMP280;70424;55.154;14.722;2023-12-14T06:33:47;101329.16;;;2.68
80962;BMP280;70424;55.154;14.722;2023-12-14T06:36:13;101329.63;;;2.66
80962;BMP280;70424;55.154;14.722;2023-12-14T06:38:38;101335.28;;;2.68
80962;BMP280;70424;55.154;14.722;2023-12-14T06:41:04;101318.00;;;2.58
80962;BMP280;70424;55.154;14.722;2023-12-14T06:43:30;101348.72;;;2.74
80962;BMP280;70424;55.154;14.722;2023-12-14T06:45:55;101324.84;;;2.59
80962;BMP280;70424;55.154;14.722;2023-12-14T06:48:21;101338.19;;;2.70
80962;BMP280;70424;55.154;14.722;2023-12-14T06:50:46;101331.44;;;2.64
80962;BMP280;70424;55.154;14.722;2023-12-14T06:53:12;101311.66;;;2.56
80962;BMP280;70424;55.154;14.722;2023-12-14T06:55:37;101333.47;;;2.58
80962;BMP280;70424;55.154;14.722;2023-12-14T06:58:02;101355.03;;;2.76
80962;BMP280;70424;55.154;14.722;2023-12-14T07:00:28;101336.63;;;2.62
80962;BMP280;70424;55.154;14.722;2023-12-14T07:02:55;101352.03;;;2.80
80962;BMP280;70424;55.154;14.722;2023-12-14T07:05:20;101356.50;;;2.77
80962;BMP280;70424;55.154;14.722;2023-12-14T07:07:45;101348.84;;;2.82
80962;BMP280;70424;55.154;14.722;2023-12-14T07:10:11;101340.88;;;2.70
80962;BMP280;70424;55.154;14.722;2023-12-14T07:12:37;101346.16;;;2.82
80962;BMP280;70424;55.154;14.722;2023-12-14T07:15:02;101363.28;;;2.84
80962;BMP280;70424;55.154;14.722;2023-12-14T07:17:28;101335.38;;;2.63
80962;BMP280;70424;55.154;14.722;2023-12-14T07:19:53;101339.44;;;2.69
80962;BMP280;70424;55.154;14.722;2023-12-14T07:22:19;101345.03;;;2.71
80962;BMP280;70424;55.154;14.722;2023-12-14T07:24:44;101371.91;;;2.83
80962;BMP280;70424;55.154;14.722;2023-12-14T07:27:09;101369.63;;;2.87
80962;BMP280;70424;55.154;14.722;2023-12-14T07:29:35;101353.34;;;2.73
80962;BMP280;70424;55.154;14.722;2023-12-14T07:32:00;101359.50;;;2.74
80962;BMP280;70424;55.154;14.722;2023-12-14T07:34:25;101377.97;;;2.89
80962;BMP280;70424;55.154;14.722;2023-12-14T07:36:53;101386.06;;;2.89
80962;BMP280;70424;55.154;14.722;2023-12-14T07:39:18;101387.00;;;2.91
80962;BMP280;70424;55.154;14.722;2023-12-14T07:41:44;101364.44;;;2.70
80962;BMP280;70424;55.154;14.722;2023-12-14T07:44:09;101380.81;;;2.77
80962;BMP280;70424;55.154;14.722;2023-12-14T07:46:35;101403.72;;;2.90
80962;BMP280;70424;55.154;14.722;2023-12-14T07:49:02;101377.44;;;2.71
80962;BMP280;70424;55.154;14.722;2023-12-14T07:51:27;101395.75;;;2.78
80962;BMP280;70424;55.154;14.722;2023-12-14T07:53:53;101380.94;;;2.66
80962;BMP280;70424;55.154;14.722;2023-12-14T07:56:18;101427.00;;;2.93
80962;BMP280;70424;55.154;14.722;2023-12-14T07:58:43;101432.09;;;2.96
80962;BMP280;70424;55.154;14.722;2023-12-14T08:01:09;101417.75;;;2.88
80962;BMP280;70424;55.154;14.722;2023-12-14T08:03:35;101420.66;;;2.90
80962;BMP280;70424;55.154;14.722;2023-12-14T08:06:00;101444.09;;;3.01
80962;BMP280;70424;55.154;14.722;2023-12-14T08:08:25;101448.97;;;3.02
80962;BMP280;70424;55.154;14.722;2023-12-14T08:10:51;101446.16;;;2.95
80962;BMP280;70424;55.154;14.722;2023-12-14T08:13:16;101459.78;;;3.02
80962;BMP280;70424;55.154;14.722;2023-12-14T08:15:42;101462.19;;;3.06
80962;BMP280;70424;55.154;14.722;2023-12-14T08:18:07;101447.88;;;2.92
80962;BMP280;70424;55.154;14.722;2023-12-14T08:20:32;101470.28;;;3.06
80962;BMP280;70424;55.154;14.722;2023-12-14T08:22:59;101453.91;;;2.98
80962;BMP280;70424;55.154;14.722;2023-12-14T08:25:24;101474.47;;;3.07
80962;BMP280;70424;55.154;14.722;2023-12-14T08:27:51;101472.09;;;2.98
80962;BMP280;70424;55.154;14.722;2023-12-14T08:30:16;101456.72;;;2.93
80962;BMP280;70424;55.154;14.722;2023-12-14T08:32:42;101483.06;;;3.05
80962;BMP280;70424;55.154;14.722;2023-12-14T08:35:08;101490.59;;;3.13
80962;BMP280;70424;55.154;14.722;2023-12-14T08:37:35;101483.78;;;3.06
80962;BMP280;70424;55.154;14.722;2023-12-14T08:40:01;101502.16;;;3.13
80962;BMP280;70424;55.154;14.722;2023-12-14T08:42:27;101513.69;;;3.14
80962;BMP280;70424;55.154;14.722;2023-12-14T08:44:52;101486.78;;;3.02
80962;BMP280;70424;55.154;14.722;2023-12-14T08:47:17;101519.81;;;3.14
80962;BMP280;70424;55.154;14.722;2023-12-14T08:49:43;101531.50;;;3.22
80962;BMP280;70424;55.154;14.722;2023-12-14T08:52:08;101515.88;;;3.15
80962;BMP280;70424;55.154;14.722;2023-12-14T08:54:36;101531.19;;;3.26
80962;BMP280;70424;55.154;14.722;2023-12-14T08:57:01;101508.56;;;3.10
80962;BMP280;70424;55.154;14.722;2023-12-14T08:59:27;101537.09;;;3.24
80962;BMP280;70424;55.154;14.722;2023-12-14T09:01:53;101545.13;;;3.30
80962;BMP280;70424;55.154;14.722;2023-12-14T09:04:18;101526.16;;;3.17
80962;BMP280;70424;55.154;14.722;2023-12-14T09:06:43;101550.53;;;3.30
80962;BMP280;70424;55.154;14.722;2023-12-14T09:09:10;101542.81;;;3.21
80962;BMP280;70424;55.154;14.722;2023-12-14T09:11:36;101542.59;;;3.19
80962;BMP280;70424;55.154;14.722;2023-12-14T09:14:02;101546.59;;;3.31
80962;BMP280;70424;55.154;14.722;2023-12-14T09:16:27;101545.19;;;3.24
80962;BMP280;70424;55.154;14.722;2023-12-14T09:18:53;101566.91;;;3.38
80962;BMP280;70424;55.154;14.722;2023-12-14T09:21:18;101546.91;;;3.27
80962;BMP280;70424;55.154;14.722;2023-12-14T09:23:43;101539.16;;;3.18
80962;BMP280;70424;55.154;14.722;2023-12-14T09:26:09;101546.38;;;3.29
80962;BMP280;70424;55.154;14.722;2023-12-14T09:28:35;101562.97;;;3.39
80962;BMP280;70424;55.154;14.722;2023-12-14T09:31:01;101565.47;;;3.37
80962;BMP280;70424;55.154;14.722;2023-12-14T09:33:26;101566.97;;;3.32
80962;BMP280;70424;55.154;14.722;2023-12-14T09:35:52;101577.38;;;3.47
80962;BMP280;70424;55.154;14.722;2023-12-14T09:38:17;101556.97;;;3.27
80962;BMP280;70424;55.154;14.722;2023-12-14T09:40:44;101558.66;;;3.30
80962;BMP280;70424;55.154;14.722;2023-12-14T09:43:10;101578.84;;;3.48
80962;BMP280;70424;55.154;14.722;2023-12-14T09:45:38;101573.03;;;3.38
80962;BMP280;70424;55.154;14.722;2023-12-14T09:48:08;101576.78;;;3.35
80962;BMP280;70424;55.154;14.722;2023-12-14T09:50:34;101555.72;;;3.28
80962;BMP280;70424;55.154;14.722;2023-12-14T09:53:00;101555.69;;;3.33
80962;BMP280;70424;55.154;14.722;2023-12-14T09:55:26;101567.81;;;3.46
80962;BMP280;70424;55.154;14.722;2023-12-14T09:57:51;101556.34;;;3.40
80962;BMP280;70424;55.154;14.722;2023-12-14T10:00:34;101581.47;;;3.53
80962;BMP280;70424;55.154;14.722;2023-12-14T10:03:18;101569.41;;;3.54
80962;BMP280;70424;55.154;14.722;2023-12-14T10:05:43;101550.03;;;3.31
80962;BMP280;70424;55.154;14.722;2023-12-14T10:08:09;101576.06;;;3.53
80962;BMP280;70424;55.154;14.722;2023-12-14T10:10:34;101578.03;;;3.53
80962;BMP280;70424;55.154;14.722;2023-12-14T10:13:00;101570.22;;;3.49
80962;BMP280;70424;55.154;14.722;2023-12-14T10:15:26;101585.84;;;3.56
80962;BMP280;70424;55.154;14.722;2023-12-14T10:17:52;101582.72;;;3.52
80962;BMP280;70424;55.154;14.722;2023-12-14T10:20:23;101571.47;;;3.48
80962;BMP280;70424;55.154;14.722;2023-12-14T10:22:53;101581.16;;;3.57
80962;BMP280;70424;55.154;14.722;2023-12-14T10:25:19;101581.66;;;3.55
80962;BMP280;70424;55.154;14.722;2023-12-14T10:27:48;101587.28;;;3.57
80962;BMP280;70424;55.154;14.722;2023-12-14T10:30:16;101573.44;;;3.48
80962;BMP280;70424;55.154;14.722;2023-12-14T10:32:42;101583.88;;;3.57
80962;BMP280;70424;55.154;14.722;2023-12-14T10:35:08;101591.47;;;3.58
80962;BMP280;70424;55.154;14.722;2023-12-14T10:37:37;101574.03;;;3.41
80962;BMP280;70424;55.154;14.722;2023-12-14T10:40:05;101599.09;;;3.60
80962;BMP280;70424;55.154;14.722;2023-12-14T10:42:32;101578.13;;;3.47
80962;BMP280;70424;55.154;14.722;2023-12-14T10:44:59;101596.44;;;3.54
80962;BMP280;70424;55.154;14.722;2023-12-14T10:47:27;101608.44;;;3.59
80962;BMP280;70424;55.154;14.722;2023-12-14T10:49:54;101587.69;;;3.48
80962;BMP280;70424;55.154;14.722;2023-12-14T10:52:21;101574.22;;;3.43
80962;BMP280;70424;55.154;14.722;2023-12-14T10:54:49;101603.03;;;3.59
80962;BMP280;70424;55.154;14.722;2023-12-14T10:57:17;101589.06;;;3.55
80962;BMP280;70424;55.154;14.722;2023-12-14T10:59:43;101603.03;;;3.59
80962;BMP280;70424;55.154;14.722;2023-12-14T11:02:09;101608.59;;;3.67
80962;BMP280;70424;55.154;14.722;2023-12-14T11:05:15;101618.16;;;3.68
80962;BMP280;70424;55.154;14.722;2023-12-14T11:07:45;101624.28;;;3.68
80962;BMP280;70424;55.154;14.722;2023-12-14T11:10:11;101616.25;;;3.62
80962;BMP280;70424;55.154;14.722;2023-12-14T11:12:37;101625.22;;;3.71
80962;BMP280;70424;55.154;14.722;2023-12-14T11:15:04;101618.00;;;3.60
80962;BMP280;70424;55.154;14.722;2023-12-14T11:17:30;101627.00;;;3.68
80962;BMP280;70424;55.154;14.722;2023-12-14T11:19:55;101623.78;;;3.70
80962;BMP280;70424;55.154;14.722;2023-12-14T11:22:26;101620.72;;;3.60
80962;BMP280;70424;55.154;14.722;2023-12-14T11:24:54;101612.81;;;3.62
80962;BMP280;70424;55.154;14.722;2023-12-14T11:27:25;101633.44;;;3.65
80962;BMP280;70424;55.154;14.722;2023-12-14T11:29:51;101616.53;;;3.59
80962;BMP280;70424;55.154;14.722;2023-12-14T11:32:17;101643.72;;;3.67
80962;BMP280;70424;55.154;14.722;2023-12-14T11:34:46;101645.47;;;3.64
80962;BMP280;70424;55.154;14.722;2023-12-14T11:37:11;101649.16;;;3.67
80962;BMP280;70424;55.154;14.722;2023-12-14T11:39:37;101635.94;;;3.57
80962;BMP280;70424;55.154;14.722;2023-12-14T11:42:04;101658.19;;;3.69
80962;BMP280;70424;55.154;14.722;2023-12-14T11:44:31;101629.47;;;3.47
80962;BMP280;70424;55.154;14.722;2023-12-14T11:46:57;101648.41;;;3.66
80962;BMP280;70424;55.154;14.722;2023-12-14T11:49:26;101660.91;;;3.69
80962;BMP280;70424;55.154;14.722;2023-12-14T11:51:52;101651.44;;;3.57
80962;BMP280;70424;55.154;14.722;2023-12-14T11:54:19;101649.25;;;3.55
80962;BMP280;70424;55.154;14.722;2023-12-14T11:56:47;101650.59;;;3.49
80962;BMP280;70424;55.154;14.722;2023-12-14T11:59:14;101666.63;;;3.66
80962;BMP280;70424;55.154;14.722;2023-12-14T12:01:59;101677.34;;;3.71
80962;BMP280;70424;55.154;14.722;2023-12-14T12:04:26;101645.38;;;3.51
80962;BMP280;70424;55.154;14.722;2023-12-14T12:07:12;101682.03;;;3.71
80962;BMP280;70424;55.154;14.722;2023-12-14T12:09:40;101675.16;;;3.70
80962;BMP280;70424;55.154;14.722;2023-12-14T12:12:08;101674.44;;;3.69
80962;BMP280;70424;55.154;14.722;2023-12-14T12:14:34;101674.47;;;3.63
80962;BMP280;70424;55.154;14.722;2023-12-14T12:17:00;101688.47;;;3.68
80962;BMP280;70424;55.154;14.722;2023-12-14T12:19:25;101675.00;;;3.62
80962;BMP280;70424;55.154;14.722;2023-12-14T12:21:50;101678.72;;;3.59
80962;BMP280;70424;55.154;14.722;2023-12-14T12:24:16;101666.59;;;3.47
80962;BMP280;70424;55.154;14.722;2023-12-14T12:26:41;101664.28;;;3.51
80962;BMP280;70424;55.154;14.722;2023-12-14T12:29:07;101690.94;;;3.66
80962;BMP280;70424;55.154;14.722;2023-12-14T12:31:32;101676.06;;;3.53
80962;BMP280;70424;55.154;14.722;2023-12-14T12:33:59;101681.69;;;3.55
80962;BMP280;70424;55.154;14.722;2023-12-14T12:36:24;101670.75;;;3.48
80962;BMP280;70424;55.154;14.722;2023-12-14T12:38:50;101687.56;;;3.59
80962;BMP280;70424;55.154;14.722;2023-12-14T12:41:16;101691.94;;;3.62
80962;BMP280;70424;55.154;14.722;2023-12-14T12:43:43;101685.13;;;3.56
80962;BMP280;70424;55.154;14.722;2023-12-14T12:46:08;101687.31;;;3.57
80962;BMP280;70424;55.154;14.722;2023-12-14T12:48:34;101690.75;;;3.58
80962;BMP280;70424;55.154;14.722;2023-12-14T12:51:00;101697.66;;;3.59
80962;BMP280;70424;55.154;14.722;2023-12-14T12:53:26;101711.09;;;3.65
80962;BMP280;70424;55.154;14.722;2023-12-14T12:55:52;101689.34;;;3.51
80962;BMP280;70424;55.154;14.722;2023-12-14T12:58:17;101687.16;;;3.50
80962;BMP280;70424;55.154;14.722;2023-12-14T13:00:42;101715.75;;;3.64
80962;BMP280;70424;55.154;14.722;2023-12-14T13:03:08;101707.28;;;3.54
80962;BMP280;70424;55.154;14.722;2023-12-14T13:05:33;101689.72;;;3.42
80962;BMP280;70424;55.154;14.722;2023-12-14T13:07:58;101718.47;;;3.64
80962;BMP280;70424;55.154;14.722;2023-12-14T13:10:25;101696.72;;;3.51
80962;BMP280;70424;55.154;14.722;2023-12-14T13:12:53;101706.19;;;3.63
80962;BMP280;70424;55.154;14.722;2023-12-14T13:15:19;101716.50;;;3.65
80962;BMP280;70424;55.154;14.722;2023-12-14T13:17:44;101699.16;;;3.54
80962;BMP280;70424;55.154;14.722;2023-12-14T13:20:09;101715.75;;;3.64
80962;BMP280;70424;55.154;14.722;2023-12-14T13:22:35;101725.13;;;3.63
80962;BMP280;70424;55.154;14.722;2023-12-14T13:25:00;101726.66;;;3.58
80962;BMP280;70424;55.154;14.722;2023-12-14T13:27:26;101732.50;;;3.62
80962;BMP280;70424;55.154;14.722;2023-12-14T13:29:51;101709.16;;;3.41
80962;BMP280;70424;55.154;14.722;2023-12-14T13:32:16;101735.00;;;3.60
80962;BMP280;70424;55.154;14.722;2023-12-14T13:34:42;101737.97;;;3.57
80962;BMP280;70424;55.154;14.722;2023-12-14T13:37:07;101738.84;;;3.46
80962;BMP280;70424;55.154;14.722;2023-12-14T13:39:34;101748.81;;;3.51
80962;BMP280;70424;55.154;14.722;2023-12-14T13:42:06;101752.03;;;3.50
80962;BMP280;70424;55.154;14.722;2023-12-14T13:44:34;101740.13;;;3.40
80962;BMP280;70424;55.154;14.722;2023-12-14T13:47:03;101749.31;;;3.50
80962;BMP280;70424;55.154;14.722;2023-12-14T13:49:29;101745.47;;;3.45